Time;durP1;ratioP1;P1;durP2;ratioP2;P2;SDS_P1;SDS_P2;PMS_P1;PMS_P2;Temp;Humidity;BMP_temperature;BMP_pressure;BME280_temperature;BME280_humidity;BME280_pressure;Samples;Min_cycle;Max_cycle;Signal;HPM_P1;HPM_P2
2021/01/05 00:02:07;;;;;;;10.70;5.10;;;2.90;99.90;;;;;;5075152;28;20213;-77
2021/01/05 00:04:34;;;;;;;13.20;6.70;;;2.70;99.90;;;;;;5075092;28;20313;-76
2021/01/05 00:07:01;;;;;;;10.10;5.20;;;2.80;99.90;;;;;;5075102;28;20281;-76
2021/01/05 00:09:27;;;;;;;12.90;5.10;;;2.90;99.90;;;;;;5075376;28;20288;-76
2021/01/05 00:11:59;;;;;;;16.20;6.35;;;3.10;99.90;;;;;;5074962;28;20203;-76
2021/01/05 00:14:26;;;;;;;10.55;5.22;;;3.20;99.90;;;;;;5074960;28;20653;-76
2021/01/05 00:16:52;;;;;;;12.98;5.80;;;3.20;99.90;;;;;;5074665;28;20285;-76
2021/01/05 00:19:19;;;;;;;12.25;5.72;;;3.30;99.90;;;;;;5075127;28;20229;-75
2021/01/05 00:21:45;;;;;;;12.55;6.25;;;3.40;99.90;;;;;;5075031;28;20199;-76
2021/01/05 00:24:12;;;;;;;10.85;5.78;;;3.40;99.90;;;;;;5074809;28;20223;-76
2021/01/05 00:26:38;;;;;;;13.52;6.45;;;3.20;99.90;;;;;;5074503;28;20202;-76
2021/01/05 00:29:06;;;;;;;12.55;5.82;;;3.20;99.90;;;;;;5074778;28;20360;-77
2021/01/05 00:31:32;;;;;;;8.50;4.90;;;3.10;99.90;;;;;;5074823;28;20567;-76
2021/01/05 00:33:59;;;;;;;15.10;6.10;;;3.20;99.90;;;;;;5074896;28;20198;-76
2021/01/05 00:36:25;;;;;;;11.25;5.43;;;3.30;99.90;;;;;;5074500;28;20298;-76
2021/01/05 00:38:52;;;;;;;8.93;5.47;;;3.30;99.90;;;;;;5074737;28;20222;-76
2021/01/05 00:41:19;;;;;;;15.70;6.57;;;3.40;99.90;;;;;;5074487;28;20213;-75
2021/01/05 00:43:46;;;;;;;11.85;5.95;;;3.40;99.90;;;;;;5073551;28;20760;-77
2021/01/05 00:46:14;;;;;;;9.65;5.75;;;3.40;99.90;;;;;;5074114;28;20299;-75
2021/01/05 00:48:41;;;;;;;11.73;5.88;;;3.20;99.90;;;;;;5074653;28;20305;-76
2021/01/05 00:51:08;;;;;;;11.63;4.82;;;3.20;99.90;;;;;;5074472;28;20241;-76
2021/01/05 00:53:35;;;;;;;11.00;6.45;;;3.30;99.90;;;;;;5074580;28;20206;-76
2021/01/05 00:56:01;;;;;;;13.95;6.30;;;3.30;99.90;;;;;;5074090;28;20290;-77
2021/01/05 00:58:28;;;;;;;15.05;6.20;;;3.40;99.90;;;;;;5074225;28;20265;-76
2021/01/05 01:00:54;;;;;;;12.20;5.47;;;3.30;99.90;;;;;;5074380;28;20289;-78
2021/01/05 01:03:23;;;;;;;8.00;5.32;;;3.20;99.90;;;;;;5074405;28;20215;-77
2021/01/05 01:05:49;;;;;;;13.43;5.93;;;3.20;99.90;;;;;;5074167;28;20211;-75
2021/01/05 01:08:17;;;;;;;8.98;5.45;;;3.30;99.90;;;;;;5073971;28;20310;-76
2021/01/05 01:10:44;;;;;;;12.10;5.25;;;3.30;99.90;;;;;;5074192;28;20576;-76
2021/01/05 01:13:11;;;;;;;12.20;5.95;;;3.40;99.90;;;;;;5074424;28;20213;-78
2021/01/05 01:15:37;;;;;;;10.63;5.25;;;3.40;99.90;;;;;;5074340;28;20403;-78
2021/01/05 01:18:05;;;;;;;8.00;5.05;;;3.30;99.90;;;;;;5074225;28;20309;-77
2021/01/05 01:20:33;;;;;;;11.73;5.28;;;3.40;99.90;;;;;;5074472;28;20207;-79
2021/01/05 01:23:00;;;;;;;11.45;5.55;;;3.40;99.90;;;;;;5074099;28;20203;-78
2021/01/05 01:25:26;;;;;;;12.38;5.18;;;3.30;99.90;;;;;;5074171;28;20219;-78
2021/01/05 01:27:53;;;;;;;15.75;6.15;;;3.30;99.90;;;;;;5073508;28;20324;-76
2021/01/05 01:30:20;;;;;;;12.95;6.35;;;3.30;99.90;;;;;;5074121;28;20352;-76
2021/01/05 01:32:47;;;;;;;11.98;5.22;;;3.20;99.90;;;;;;5073566;28;20198;-75
2021/01/05 01:35:14;;;;;;;16.40;6.57;;;3.30;99.90;;;;;;5073577;28;20194;-75
2021/01/05 01:37:42;;;;;;;14.60;5.95;;;3.30;99.90;;;;;;5073274;28;20592;-75
2021/01/05 01:40:11;;;;;;;9.57;5.70;;;3.40;99.90;;;;;;5073574;28;20718;-80
2021/01/05 01:42:37;;;;;;;14.18;6.43;;;3.50;99.90;;;;;;5074392;28;20211;-76
2021/01/05 01:45:05;;;;;;;8.70;5.28;;;3.50;99.90;;;;;;5074971;28;20769;-78
2021/01/05 01:47:35;;;;;;;11.48;6.72;;;3.50;99.90;;;;;;5075402;28;20202;-79
2021/01/05 01:50:07;;;;;;;12.27;6.05;;;3.60;99.90;;;;;;5074864;28;20203;-77
2021/01/05 01:53:00;;;;;;;10.25;4.78;;;3.40;99.90;;;;;;5073264;28;20206;-76
2021/01/05 01:55:37;;;;;;;8.98;5.65;;;3.50;99.90;;;;;;5072007;28;20286;-76
2021/01/05 01:58:25;;;;;;;12.45;6.15;;;3.60;99.90;;;;;;5072999;28;20223;-78
2021/01/05 02:01:07;;;;;;;11.20;5.63;;;3.60;99.90;;;;;;5073192;28;20209;-76
2021/01/05 02:04:02;;;;;;;10.73;5.57;;;3.60;99.90;;;;;;5073200;28;20226;-77
2021/01/05 02:06:40;;;;;;;15.27;6.72;;;3.50;99.90;;;;;;5072909;28;20209;-76
2021/01/05 02:09:26;;;;;;;12.60;5.43;;;3.40;99.90;;;;;;5073042;28;20585;-75
2021/01/05 02:12:01;;;;;;;12.35;5.43;;;3.20;99.90;;;;;;5073066;28;20298;-75
2021/01/05 02:14:50;;;;;;;15.75;5.90;;;3.00;99.90;;;;;;5072906;28;20206;-73
2021/01/05 02:17:57;;;;;;;13.30;7.05;;;3.00;99.90;;;;;;5072550;28;20673;-74
2021/01/05 02:20:28;;;;;;;10.02;5.05;;;2.80;99.90;;;;;;5073197;28;20252;-75
2021/01/05 02:23:02;;;;;;;9.23;5.82;;;2.70;99.90;;;;;;5073674;28;20203;-74
2021/01/05 02:25:53;;;;;;;10.27;5.60;;;2.70;99.90;;;;;;5073185;28;20228;-74
2021/01/05 02:28:23;;;;;;;18.08;7.03;;;2.70;99.90;;;;;;5072793;28;20753;-73
2021/01/05 02:30:55;;;;;;;10.27;5.20;;;2.70;99.90;;;;;;5073195;28;20661;-73
2021/01/05 02:33:33;;;;;;;12.82;6.80;;;2.80;99.90;;;;;;5073010;28;20657;-73
2021/01/05 02:36:22;;;;;;;11.82;5.88;;;2.80;99.90;;;;;;5072394;28;20668;-73
2021/01/05 02:39:07;;;;;;;11.82;5.90;;;2.80;99.90;;;;;;5072795;28;20318;-73
2021/01/05 02:41:48;;;;;;;12.38;5.90;;;2.80;99.90;;;;;;5073021;28;20300;-73
2021/01/05 02:44:35;;;;;;;7.90;5.35;;;2.80;99.90;;;;;;5072763;28;20766;-74
2021/01/05 02:47:11;;;;;;;11.60;5.07;;;2.70;99.90;;;;;;5069879;28;20293;-73
2021/01/05 02:49:45;;;;;;;8.98;4.95;;;2.60;99.90;;;;;;5072859;28;20230;-74
2021/01/05 02:52:44;;;;;;;11.75;5.57;;;2.60;99.90;;;;;;5072699;28;20231;-74
2021/01/05 02:55:43;;;;;;;13.18;6.15;;;2.70;99.90;;;;;;5072659;28;20567;-75
2021/01/05 02:58:33;;;;;;;13.05;6.05;;;2.70;99.90;;;;;;5069655;28;20222;-76
2021/01/05 03:01:45;;;;;;;17.40;5.78;;;2.80;99.90;;;;;;5072699;28;20198;-75
2021/01/05 03:04:11;;;;;;;11.93;5.30;;;2.90;99.90;;;;;;5072329;28;20755;-76
2021/01/05 03:06:43;;;;;;;10.85;5.75;;;2.80;99.90;;;;;;5071932;28;20751;-75
2021/01/05 03:09:41;;;;;;;14.20;6.00;;;2.80;99.90;;;;;;5072763;28;20227;-75
2021/01/05 03:12:27;;;;;;;13.05;5.50;;;2.70;99.90;;;;;;5072153;28;20234;-75
2021/01/05 03:15:05;;;;;;;15.15;5.97;;;2.70;99.90;;;;;;5072522;28;20278;-72
2021/01/05 03:17:36;;;;;;;14.73;7.40;;;2.60;99.90;;;;;;5071937;28;20206;-72
2021/01/05 03:20:13;;;;;;;15.90;6.90;;;2.70;99.90;;;;;;5071994;28;20198;-72
2021/01/05 03:22:49;;;;;;;15.07;6.72;;;2.60;99.90;;;;;;5072158;28;20208;-73
2021/01/05 03:25:18;;;;;;;13.70;7.75;;;2.60;99.90;;;;;;5071943;28;20267;-76
2021/01/05 03:27:46;;;;;;;11.63;5.78;;;2.70;99.90;;;;;;5071716;28;20313;-75
2021/01/05 03:30:20;;;;;;;14.15;7.00;;;2.70;99.90;;;;;;5071946;28;20570;-75
2021/01/05 03:32:46;;;;;;;14.45;9.15;;;2.80;99.90;;;;;;5071752;28;20210;-75
2021/01/05 03:35:13;;;;;;;13.68;6.75;;;2.90;99.90;;;;;;5072054;28;20207;-74
2021/01/05 03:37:39;;;;;;;21.23;7.72;;;2.80;99.90;;;;;;5071680;28;20222;-74
2021/01/05 03:40:09;;;;;;;19.45;6.35;;;2.90;99.90;;;;;;5071941;28;20225;-72
2021/01/05 03:42:35;;;;;;;15.32;7.10;;;3.00;99.90;;;;;;5071866;28;20207;-74
2021/01/05 03:45:03;;;;;;;18.73;8.55;;;3.10;99.90;;;;;;5071732;28;20624;-72
2021/01/05 03:47:30;;;;;;;10.55;5.97;;;3.00;99.90;;;;;;5071406;28;20202;-73
2021/01/05 03:49:56;;;;;;;19.67;6.80;;;2.90;99.90;;;;;;5071873;28;20203;-73
2021/01/05 03:52:24;;;;;;;11.68;6.90;;;2.90;99.90;;;;;;5071828;28;20291;-76
2021/01/05 03:54:50;;;;;;;14.23;7.63;;;2.90;99.90;;;;;;5071789;28;20198;-77
2021/01/05 03:57:17;;;;;;;17.58;6.20;;;2.90;99.90;;;;;;5071680;28;20414;-76
2021/01/05 03:59:43;;;;;;;15.98;7.70;;;2.90;99.90;;;;;;5071550;28;20227;-77
2021/01/05 04:02:10;;;;;;;12.93;7.05;;;3.00;99.90;;;;;;5071640;28;20203;-73
2021/01/05 04:04:37;;;;;;;13.10;6.88;;;3.10;99.90;;;;;;5071713;28;20223;-76
2021/01/05 04:07:03;;;;;;;17.63;8.18;;;3.20;99.90;;;;;;5071387;28;20209;-76
2021/01/05 04:09:30;;;;;;;18.08;7.50;;;3.30;99.90;;;;;;5071565;28;20218;-77
2021/01/05 04:11:56;;;;;;;14.48;7.45;;;3.30;99.90;;;;;;5071491;28;20301;-76
2021/01/05 04:14:22;;;;;;;18.33;7.65;;;3.30;99.90;;;;;;5071897;28;20337;-77
2021/01/05 04:16:49;;;;;;;15.45;6.60;;;3.40;99.90;;;;;;5071399;28;20290;-77
2021/01/05 04:19:15;;;;;;;17.40;7.32;;;3.30;99.90;;;;;;5074188;28;20645;-76
2021/01/05 04:21:42;;;;;;;14.95;6.25;;;3.50;99.90;;;;;;5075005;28;20210;-77
2021/01/05 04:24:09;;;;;;;16.75;7.10;;;3.50;99.90;;;;;;5074730;28;20310;-76
2021/01/05 04:26:35;;;;;;;20.38;6.82;;;3.50;99.90;;;;;;5075584;28;20202;-78
2021/01/05 04:29:02;;;;;;;18.58;7.47;;;3.60;99.90;;;;;;5075877;28;20719;-78
2021/01/05 04:31:28;;;;;;;12.55;6.13;;;3.70;99.90;;;;;;5076601;28;20298;-78
2021/01/05 04:33:54;;;;;;;16.25;7.43;;;3.60;99.90;;;;;;5076469;28;20614;-76
2021/01/05 04:36:21;;;;;;;15.15;6.85;;;3.30;99.90;;;;;;5074844;28;20205;-78
2021/01/05 04:38:48;;;;;;;12.55;6.30;;;3.30;99.90;;;;;;5075530;28;20313;-76
2021/01/05 04:41:18;;;;;;;16.80;8.00;;;3.40;99.90;;;;;;5074976;28;20290;-80
2021/01/05 04:43:51;;;;;;;14.75;7.82;;;3.50;99.90;;;;;;5075030;28;20549;-77
2021/01/05 04:46:42;;;;;;;17.30;6.40;;;3.40;99.90;;;;;;5075503;28;20203;-77
2021/01/05 04:49:45;;;;;;;10.82;6.18;;;3.40;99.90;;;;;;5075674;28;20226;-77
2021/01/05 04:52:17;;;;;;;13.73;6.25;;;3.40;99.90;;;;;;5064427;28;20207;-78
2021/01/05 04:54:49;;;;;;;13.88;6.60;;;3.40;99.90;;;;;;5074630;28;20541;-74
2021/01/05 04:57:22;;;;;;;15.90;6.60;;;3.40;99.90;;;;;;5075454;28;20293;-71
2021/01/05 04:59:53;;;;;;;19.52;7.50;;;3.40;99.90;;;;;;5075947;28;20534;-73
2021/01/05 05:02:33;;;;;;;15.18;7.93;;;3.40;99.90;;;;;;5076509;28;20207;-70
2021/01/05 05:05:04;;;;;;;15.23;8.63;;;3.40;99.90;;;;;;5075792;28;20229;-70
2021/01/05 05:07:50;;;;;;;13.45;7.07;;;3.50;99.90;;;;;;5075517;28;20648;-70
2021/01/05 05:10:23;;;;;;;16.27;7.28;;;3.70;99.90;;;;;;5073023;28;20616;-71
2021/01/05 05:12:59;;;;;;;14.15;7.30;;;3.60;99.90;;;;;;5074281;28;20352;-72
2021/01/05 05:15:42;;;;;;;19.40;7.78;;;3.50;99.90;;;;;;5074595;28;20565;-72
2021/01/05 05:18:41;;;;;;;15.57;6.53;;;3.40;99.90;;;;;;5074161;28;20283;-72
2021/01/05 05:21:26;;;;;;;11.85;6.40;;;3.40;99.90;;;;;;5073765;28;20240;-71
2021/01/05 05:24:26;;;;;;;16.20;7.10;;;3.30;99.90;;;;;;5073504;28;20229;-72
2021/01/05 05:26:59;;;;;;;13.05;7.13;;;3.30;99.90;;;;;;5068330;28;20305;-72
2021/01/05 05:29:46;;;;;;;15.93;7.63;;;3.30;99.90;;;;;;5073399;28;20227;-71
2021/01/05 05:32:19;;;;;;;13.07;7.60;;;3.20;99.90;;;;;;5073783;28;20294;-72
2021/01/05 05:34:57;;;;;;;20.15;7.75;;;3.20;99.90;;;;;;5073660;28;20202;-72
2021/01/05 05:37:49;;;;;;;16.25;7.25;;;3.20;99.90;;;;;;5073508;28;20207;-73
2021/01/05 05:40:24;;;;;;;16.15;8.93;;;3.40;99.90;;;;;;5073854;28;20286;-73
2021/01/05 05:43:16;;;;;;;18.60;6.95;;;3.40;99.90;;;;;;5075777;28;20202;-70
2021/01/05 05:45:46;;;;;;;15.20;7.32;;;3.60;99.90;;;;;;5075498;28;20311;-70
2021/01/05 05:48:22;;;;;;;18.58;8.68;;;3.70;99.90;;;;;;5075453;28;20248;-71
2021/01/05 05:50:59;;;;;;;17.75;7.85;;;3.90;99.90;;;;;;5074948;28;20198;-71
2021/01/05 05:53:28;;;;;;;15.85;7.57;;;3.70;99.90;;;;;;5075432;28;20729;-71
2021/01/05 05:56:01;;;;;;;18.23;7.57;;;3.50;99.90;;;;;;5075382;28;20259;-70
2021/01/05 05:58:32;;;;;;;17.10;7.38;;;3.60;99.90;;;;;;5075579;28;20231;-70
2021/01/05 06:01:01;;;;;;;15.45;7.53;;;3.70;99.90;;;;;;5075173;28;20297;-71
2021/01/05 06:03:28;;;;;;;16.15;9.43;;;3.70;99.90;;;;;;5074924;28;20206;-71
2021/01/05 06:05:55;;;;;;;16.73;8.18;;;3.70;99.90;;;;;;5074825;28;20256;-70
2021/01/05 06:08:23;;;;;;;17.63;8.52;;;3.60;99.90;;;;;;5075003;28;20228;-71
2021/01/05 06:10:51;;;;;;;15.23;7.00;;;3.50;99.90;;;;;;5075703;28;20289;-71
2021/01/05 06:13:18;;;;;;;13.90;7.55;;;3.40;99.90;;;;;;5074943;28;20209;-71
2021/01/05 06:15:45;;;;;;;14.75;6.15;;;3.40;99.90;;;;;;5074710;28;20208;-70
2021/01/05 06:18:15;;;;;;;16.00;7.47;;;3.40;99.90;;;;;;5074826;28;20237;-71
2021/01/05 06:20:41;;;;;;;14.15;7.85;;;3.50;99.90;;;;;;5075076;28;20199;-71
2021/01/05 06:23:08;;;;;;;13.00;7.03;;;3.40;99.90;;;;;;5075269;28;20297;-70
2021/01/05 06:25:34;;;;;;;18.67;8.38;;;3.50;99.90;;;;;;5075101;28;20314;-70
2021/01/05 06:28:00;;;;;;;14.27;7.10;;;3.60;99.90;;;;;;5075241;28;20654;-70
2021/01/05 06:30:27;;;;;;;11.93;8.05;;;3.70;99.90;;;;;;5075223;28;20216;-71
2021/01/05 06:32:54;;;;;;;17.88;8.52;;;3.90;99.90;;;;;;5075987;28;20202;-70
2021/01/05 06:35:22;;;;;;;14.77;8.30;;;3.70;99.90;;;;;;5075263;28;20290;-70
2021/01/05 06:37:49;;;;;;;13.63;6.22;;;3.70;99.90;;;;;;5074864;28;20258;-70
2021/01/05 06:40:17;;;;;;;16.88;6.85;;;3.80;99.90;;;;;;5074711;28;20203;-70
2021/01/05 06:42:44;;;;;;;16.30;7.13;;;3.80;99.90;;;;;;5074077;28;20545;-70
2021/01/05 06:45:16;;;;;;;16.73;7.60;;;3.90;99.90;;;;;;5074172;28;20233;-70
2021/01/05 06:47:42;;;;;;;19.60;7.47;;;4.00;99.90;;;;;;5074251;28;20227;-70
2021/01/05 06:50:11;;;;;;;12.60;6.45;;;4.00;99.90;;;;;;5074682;28;20297;-70
2021/01/05 06:52:37;;;;;;;16.67;7.50;;;4.10;99.90;;;;;;5074644;28;20210;-70
2021/01/05 06:55:05;;;;;;;16.38;7.60;;;4.10;99.90;;;;;;5074173;28;20285;-70
2021/01/05 06:57:31;;;;;;;14.90;7.88;;;4.10;99.90;;;;;;5073996;28;20208;-70
2021/01/05 06:59:57;;;;;;;14.43;7.75;;;4.20;99.90;;;;;;5073937;28;20295;-71
2021/01/05 07:02:23;;;;;;;17.55;7.28;;;4.20;99.90;;;;;;5074257;28;20343;-70
2021/01/05 07:04:50;;;;;;;14.50;7.65;;;4.30;99.90;;;;;;5074332;28;20214;-70
2021/01/05 07:07:17;;;;;;;18.60;8.27;;;4.30;99.90;;;;;;5073787;28;20305;-70
2021/01/05 07:09:43;;;;;;;18.88;8.32;;;4.30;99.90;;;;;;5074056;28;20269;-70
2021/01/05 07:12:10;;;;;;;11.63;8.13;;;4.40;99.90;;;;;;5074088;28;20297;-70
2021/01/05 07:14:36;;;;;;;14.55;6.68;;;4.30;99.90;;;;;;5073899;28;20194;-70
2021/01/05 07:17:03;;;;;;;20.38;8.23;;;4.20;99.90;;;;;;5073949;28;20202;-70
2021/01/05 07:19:29;;;;;;;16.90;7.90;;;4.30;99.90;;;;;;5074312;28;20222;-70
2021/01/05 07:21:56;;;;;;;16.63;8.07;;;4.30;99.90;;;;;;5074587;28;20257;-71
2021/01/05 07:24:23;;;;;;;11.98;7.10;;;4.40;99.90;;;;;;5073837;28;20383;-70
2021/01/05 07:26:50;;;;;;;17.35;8.32;;;4.40;99.90;;;;;;5073624;28;20221;-70
2021/01/05 07:29:20;;;;;;;13.63;7.50;;;4.30;99.90;;;;;;5074215;28;20222;-71
2021/01/05 07:31:48;;;;;;;18.60;8.00;;;4.20;99.90;;;;;;5074320;28;20203;-71
2021/01/05 07:34:14;;;;;;;16.42;7.93;;;4.10;99.90;;;;;;5074019;28;20195;-71
2021/01/05 07:36:43;;;;;;;14.57;7.43;;;4.10;99.90;;;;;;5073650;28;20610;-70
2021/01/05 07:39:24;;;;;;;15.43;6.38;;;4.00;99.90;;;;;;5073635;28;20222;-71
2021/01/05 07:41:52;;;;;;;20.30;7.80;;;4.00;99.90;;;;;;5073956;28;20206;-71
2021/01/05 07:44:18;;;;;;;17.92;8.20;;;4.00;99.90;;;;;;5073836;28;20214;-70
2021/01/05 07:46:46;;;;;;;12.70;6.90;;;4.10;99.90;;;;;;5073520;28;20293;-70
2021/01/05 07:49:12;;;;;;;14.13;7.50;;;3.90;99.90;;;;;;5073505;28;20596;-71
2021/01/05 07:51:44;;;;;;;15.10;7.20;;;4.00;99.90;;;;;;5073722;28;20299;-71
2021/01/05 07:54:10;;;;;;;13.43;7.28;;;4.00;99.90;;;;;;5077593;28;20203;-70
2021/01/05 07:56:42;;;;;;;13.93;8.15;;;4.00;99.90;;;;;;5077222;28;20675;-70
2021/01/05 07:59:08;;;;;;;16.33;7.45;;;3.90;99.90;;;;;;5077046;28;20584;-70
2021/01/05 08:01:35;;;;;;;15.45;6.85;;;3.80;99.90;;;;;;5078154;28;20289;-71
2021/01/05 08:04:01;;;;;;;12.07;7.45;;;3.80;99.90;;;;;;5077337;28;20294;-71
2021/01/05 08:06:27;;;;;;;12.40;6.10;;;3.70;99.90;;;;;;5076985;28;20290;-70
2021/01/05 08:08:53;;;;;;;19.30;7.63;;;3.60;99.90;;;;;;5077405;28;20314;-71
2021/01/05 08:11:20;;;;;;;11.27;6.30;;;3.70;99.90;;;;;;5077741;28;20289;-71
2021/01/05 08:13:47;;;;;;;12.18;6.45;;;3.70;99.90;;;;;;5077544;28;20209;-71
2021/01/05 08:16:14;;;;;;;15.07;6.72;;;3.80;99.90;;;;;;5076924;28;20209;-70
2021/01/05 08:18:40;;;;;;;14.48;7.53;;;3.80;99.90;;;;;;5077182;28;20227;-70
2021/01/05 08:21:06;;;;;;;13.40;6.15;;;3.70;99.90;;;;;;5077252;28;20224;-71
2021/01/05 08:23:33;;;;;;;10.00;6.18;;;3.70;99.90;;;;;;5077247;28;20198;-70
2021/01/05 08:25:59;;;;;;;15.75;7.35;;;3.60;99.90;;;;;;5076519;28;20225;-70
2021/01/05 08:28:26;;;;;;;12.43;6.65;;;3.60;99.90;;;;;;5076514;28;20233;-70
2021/01/05 08:30:53;;;;;;;10.85;5.70;;;3.60;99.90;;;;;;5076842;28;20211;-71
2021/01/05 08:33:19;;;;;;;15.02;7.20;;;3.60;99.90;;;;;;5076922;28;20538;-70
2021/01/05 08:35:47;;;;;;;16.13;5.97;;;3.50;99.90;;;;;;5076859;28;20199;-70
2021/01/05 08:38:13;;;;;;;11.57;6.30;;;3.40;99.90;;;;;;5076585;28;20265;-71
2021/01/05 08:40:40;;;;;;;10.57;6.38;;;3.30;99.90;;;;;;5077115;28;20294;-70
2021/01/05 08:43:08;;;;;;;12.30;6.28;;;3.20;99.90;;;;;;5077807;28;20199;-71
2021/01/05 08:45:35;;;;;;;12.23;5.78;;;3.30;99.90;;;;;;5076692;28;20234;-70
2021/01/05 08:48:03;;;;;;;15.15;7.95;;;3.40;99.90;;;;;;5076561;28;20722;-70
2021/01/05 08:50:32;;;;;;;13.98;7.20;;;3.30;99.90;;;;;;5076833;28;20293;-70
2021/01/05 08:53:00;;;;;;;14.80;6.90;;;3.10;99.90;;;;;;5076873;28;20301;-70
2021/01/05 08:55:27;;;;;;;11.85;6.28;;;3.10;99.90;;;;;;5076953;28;20247;-70
2021/01/05 08:57:53;;;;;;;17.08;7.47;;;3.00;99.90;;;;;;5076707;28;20627;-70
2021/01/05 09:00:21;;;;;;;9.27;6.40;;;3.00;99.90;;;;;;5076687;28;20211;-70
2021/01/05 09:02:47;;;;;;;12.90;6.00;;;3.10;99.90;;;;;;5077190;28;20293;-70
2021/01/05 09:05:15;;;;;;;14.65;6.57;;;3.10;99.90;;;;;;5076390;28;20233;-70
2021/01/05 09:07:42;;;;;;;11.25;6.20;;;3.20;99.90;;;;;;5076848;28;20618;-71
2021/01/05 09:10:14;;;;;;;14.05;7.25;;;3.30;99.90;;;;;;5076113;28;20316;-70
2021/01/05 09:12:40;;;;;;;14.15;6.95;;;3.50;99.90;;;;;;5075998;28;20207;-71
2021/01/05 09:15:08;;;;;;;17.73;6.93;;;3.60;99.90;;;;;;5075866;28;20289;-71
2021/01/05 09:17:34;;;;;;;17.52;6.65;;;3.70;99.90;;;;;;5075619;28;20207;-70
2021/01/05 09:20:00;;;;;;;14.45;7.20;;;3.80;99.90;;;;;;5076114;28;20199;-70
2021/01/05 09:22:28;;;;;;;13.98;6.10;;;3.80;99.90;;;;;;5076035;28;20548;-70
2021/01/05 09:24:54;;;;;;;12.75;6.47;;;3.80;99.90;;;;;;5075768;28;20222;-70
2021/01/05 09:27:21;;;;;;;13.52;7.03;;;3.90;99.90;;;;;;5075000;28;20802;-70
2021/01/05 09:29:47;;;;;;;14.15;5.80;;;3.90;99.90;;;;;;5075692;28;20231;-70
2021/01/05 09:32:13;;;;;;;9.90;6.38;;;3.80;99.90;;;;;;5075684;28;20213;-71
2021/01/05 09:34:39;;;;;;;13.10;6.35;;;3.90;99.90;;;;;;5075827;28;20289;-71
2021/01/05 09:37:07;;;;;;;9.38;5.43;;;4.00;99.90;;;;;;5075031;28;20293;-70
2021/01/05 09:39:34;;;;;;;10.82;6.53;;;4.20;99.90;;;;;;5075378;28;20219;-71
2021/01/05 09:42:03;;;;;;;15.32;6.72;;;4.10;99.90;;;;;;5075115;28;20289;-71
2021/01/05 09:44:29;;;;;;;13.27;6.32;;;4.10;99.90;;;;;;5075918;28;20633;-70
2021/01/05 09:46:59;;;;;;;15.40;6.22;;;4.10;99.90;;;;;;5075435;28;20619;-70
2021/01/05 09:49:26;;;;;;;16.20;6.75;;;3.80;99.90;;;;;;5075791;28;20604;-70
2021/01/05 09:51:56;;;;;;;13.80;6.93;;;3.70;99.90;;;;;;5075535;28;20522;-70
2021/01/05 09:54:22;;;;;;;13.25;6.75;;;3.70;99.90;;;;;;5074717;28;20648;-70
2021/01/05 09:56:53;;;;;;;11.57;6.18;;;3.80;99.90;;;;;;5074556;28;20238;-70
2021/01/05 09:59:20;;;;;;;9.27;6.22;;;3.90;99.90;;;;;;5075232;28;20233;-70
2021/01/05 10:01:47;;;;;;;12.30;6.88;;;4.00;99.90;;;;;;5075363;28;20203;-71
2021/01/05 10:04:13;;;;;;;10.73;6.75;;;4.20;99.90;;;;;;5075102;28;20713;-70
2021/01/05 10:06:40;;;;;;;17.02;8.52;;;4.30;99.90;;;;;;5074651;28;20203;-70
2021/01/05 10:09:08;;;;;;;12.63;6.63;;;4.10;99.90;;;;;;5074979;28;20309;-71
2021/01/05 10:11:36;;;;;;;14.70;7.25;;;4.00;99.90;;;;;;5074888;28;20544;-71
2021/01/05 10:14:04;;;;;;;13.85;6.70;;;4.00;99.90;;;;;;5074849;28;20202;-71
2021/01/05 10:16:30;;;;;;;15.20;6.65;;;4.00;99.90;;;;;;5073772;28;20203;-70
2021/01/05 10:18:57;;;;;;;15.07;6.97;;;4.10;99.90;;;;;;5074514;28;20316;-71
2021/01/05 10:21:31;;;;;;;16.25;7.32;;;4.20;99.90;;;;;;5074284;28;20633;-71
2021/01/05 10:23:58;;;;;;;19.05;7.65;;;4.30;99.90;;;;;;5074476;28;20602;-70
2021/01/05 10:26:24;;;;;;;13.52;7.00;;;4.40;99.90;;;;;;5074095;28;20293;-70
2021/01/05 10:28:51;;;;;;;16.30;7.40;;;4.40;99.90;;;;;;5074204;28;20226;-70
2021/01/05 10:31:18;;;;;;;12.25;6.50;;;4.20;99.90;;;;;;5075033;28;20206;-70
2021/01/05 10:33:44;;;;;;;14.60;7.10;;;4.10;99.90;;;;;;5074342;28;20210;-71
2021/01/05 10:36:16;;;;;;;12.43;7.20;;;4.10;99.90;;;;;;5074276;28;20294;-70
2021/01/05 10:38:42;;;;;;;15.15;7.82;;;4.20;99.90;;;;;;5074909;28;20227;-70
2021/01/05 10:41:09;;;;;;;12.63;6.45;;;4.20;99.90;;;;;;5074104;28;20203;-71
2021/01/05 10:43:35;;;;;;;14.50;7.25;;;4.20;99.90;;;;;;5074539;28;20293;-71
2021/01/05 10:46:01;;;;;;;18.85;7.97;;;4.20;99.90;;;;;;5073992;28;20233;-70
2021/01/05 10:48:28;;;;;;;17.08;7.78;;;4.20;99.90;;;;;;5073947;28;20227;-71
2021/01/05 10:50:54;;;;;;;13.50;7.03;;;4.20;99.90;;;;;;5074051;28;20655;-71
2021/01/05 10:53:21;;;;;;;15.85;6.70;;;4.10;99.90;;;;;;5074129;28;20202;-71
2021/01/05 10:55:47;;;;;;;17.60;6.85;;;4.20;99.90;;;;;;5074149;28;20297;-71
2021/01/05 10:58:14;;;;;;;12.25;6.80;;;4.20;99.90;;;;;;5073994;28;20313;-71
2021/01/05 11:00:40;;;;;;;14.05;7.53;;;4.30;99.90;;;;;;5074325;28;20289;-70
2021/01/05 11:03:06;;;;;;;12.75;7.25;;;4.30;99.90;;;;;;5073839;28;20209;-70
2021/01/05 11:05:33;;;;;;;13.10;6.80;;;4.40;99.90;;;;;;5073539;28;20222;-70
2021/01/05 11:08:00;;;;;;;12.40;6.50;;;4.30;99.90;;;;;;5073637;28;20309;-70
2021/01/05 11:10:26;;;;;;;14.77;7.10;;;4.30;99.90;;;;;;5074375;28;20598;-70
2021/01/05 11:12:56;;;;;;;11.48;5.88;;;4.20;99.90;;;;;;5074057;28;20203;-70
2021/01/05 11:15:23;;;;;;;16.15;7.43;;;4.20;99.90;;;;;;5074007;28;20205;-70
2021/01/05 11:17:50;;;;;;;15.43;7.10;;;4.10;99.90;;;;;;5073382;28;20577;-70
2021/01/05 11:20:17;;;;;;;12.73;6.55;;;4.20;99.90;;;;;;5073578;28;20209;-70
2021/01/05 11:22:45;;;;;;;13.15;7.65;;;4.10;99.90;;;;;;5073955;28;20203;-70
2021/01/05 11:25:14;;;;;;;14.93;7.43;;;4.20;99.90;;;;;;5073794;28;20313;-70
2021/01/05 11:27:40;;;;;;;11.48;7.43;;;4.20;99.90;;;;;;5075016;28;20235;-70
2021/01/05 11:30:08;;;;;;;19.45;7.40;;;4.50;99.90;;;;;;5077442;28;20203;-70
2021/01/05 11:32:35;;;;;;;16.42;6.00;;;4.60;99.90;;;;;;5077752;28;20247;-70
2021/01/05 11:35:03;;;;;;;15.13;7.30;;;4.60;99.90;;;;;;5077630;28;20641;-70
2021/01/05 11:37:29;;;;;;;16.50;7.72;;;4.70;99.90;;;;;;5077433;28;20234;-70
2021/01/05 11:39:56;;;;;;;16.95;7.45;;;4.60;99.90;;;;;;5077708;28;20202;-70
2021/01/05 11:42:24;;;;;;;16.15;7.65;;;4.30;99.90;;;;;;5077826;28;20293;-70
2021/01/05 11:44:51;;;;;;;13.27;6.50;;;4.20;99.90;;;;;;5077142;28;20714;-70
2021/01/05 11:47:20;;;;;;;13.27;6.60;;;4.20;99.90;;;;;;5077074;28;20206;-70
2021/01/05 11:49:47;;;;;;;15.57;7.15;;;4.30;99.90;;;;;;5077733;28;20226;-70
2021/01/05 11:52:14;;;;;;;14.73;7.72;;;4.40;99.90;;;;;;5077554;28;20198;-70
2021/01/05 11:54:40;;;;;;;17.38;7.55;;;4.40;99.90;;;;;;5077506;28;20207;-70
2021/01/05 11:57:09;;;;;;;13.40;6.70;;;4.40;99.90;;;;;;5076744;28;20298;-70
2021/01/05 11:59:36;;;;;;;14.98;7.57;;;4.40;99.90;;;;;;5076839;28;20222;-70
2021/01/05 12:02:03;;;;;;;13.30;7.22;;;4.50;99.90;;;;;;5077159;28;20583;-70
2021/01/05 12:04:30;;;;;;;16.98;7.10;;;4.40;99.90;;;;;;5076642;28;20261;-70
2021/01/05 12:06:57;;;;;;;16.17;7.35;;;4.40;99.90;;;;;;5076476;28;20206;-70
2021/01/05 12:09:26;;;;;;;15.00;8.13;;;4.40;99.90;;;;;;5077166;28;20254;-70
2021/01/05 12:11:57;;;;;;;16.70;6.93;;;4.30;99.90;;;;;;5076866;28;20203;-70
2021/01/05 12:14:24;;;;;;;11.65;5.93;;;4.20;99.90;;;;;;5077172;28;20331;-70
2021/01/05 12:16:51;;;;;;;12.70;6.55;;;4.20;99.90;;;;;;5077021;28;20649;-70
2021/01/05 12:19:21;;;;;;;16.10;7.90;;;4.20;99.90;;;;;;5077323;28;20226;-70
2021/01/05 12:21:47;;;;;;;12.15;7.60;;;4.10;99.90;;;;;;5075743;28;20717;-72
2021/01/05 12:24:15;;;;;;;14.85;7.43;;;4.10;99.90;;;;;;5073503;28;20211;-72
2021/01/05 12:26:42;;;;;;;12.65;6.55;;;4.20;99.90;;;;;;5075180;28;20199;-70
2021/01/05 12:29:12;;;;;;;18.88;7.40;;;4.10;99.90;;;;;;5075098;28;20284;-72
2021/01/05 12:31:42;;;;;;;13.32;7.22;;;4.10;99.90;;;;;;5075233;28;20202;-71
2021/01/05 12:34:09;;;;;;;19.95;7.97;;;4.10;99.90;;;;;;5074850;28;20294;-72
2021/01/05 12:36:37;;;;;;;15.50;6.30;;;4.20;99.90;;;;;;5074523;28;20252;-72
2021/01/05 12:39:06;;;;;;;10.80;6.63;;;4.20;99.90;;;;;;5074000;28;20233;-74
2021/01/05 12:41:34;;;;;;;11.82;6.70;;;4.30;99.90;;;;;;5075156;28;20207;-71
2021/01/05 12:44:01;;;;;;;16.90;8.00;;;4.40;99.90;;;;;;5075008;28;20211;-71
2021/01/05 12:46:30;;;;;;;15.85;7.55;;;4.40;99.90;;;;;;5074783;28;20603;-73
2021/01/05 12:48:57;;;;;;;15.73;8.27;;;4.50;99.90;;;;;;5074558;28;20347;-72
2021/01/05 12:51:28;;;;;;;15.27;6.53;;;4.10;99.90;;;;;;5074992;28;20202;-73
2021/01/05 12:53:54;;;;;;;18.00;8.38;;;4.00;99.90;;;;;;5074705;28;20267;-72
2021/01/05 12:56:21;;;;;;;14.70;6.80;;;4.10;99.90;;;;;;5074279;28;20285;-72
2021/01/05 12:58:47;;;;;;;15.35;7.22;;;4.30;99.90;;;;;;5074372;28;20230;-72
2021/01/05 13:01:14;;;;;;;14.75;7.55;;;4.50;99.90;;;;;;5074488;28;20209;-72
2021/01/05 13:03:41;;;;;;;13.75;8.25;;;4.60;99.90;;;;;;5074155;28;20209;-73